createdAt,value
2023-04-28T00:03:48.692Z,53.4
2023-04-28T00:09:41.687Z,53.4
2023-04-28T00:15:32.743Z,53.3
2023-04-28T00:21:25.509Z,53.3
2023-04-28T00:27:16.695Z,53.3
2023-04-28T00:33:12.761Z,53.2
2023-04-28T00:39:04.395Z,53.1
2023-04-28T00:44:40.665Z,53.1
2023-04-28T00:50:16.669Z,53.1
2023-04-28T00:56:07.664Z,53
2023-04-28T01:01:43.682Z,53
2023-04-28T01:07:22.493Z,52.9
2023-04-28T01:13:14.122Z,52.9
2023-04-28T01:19:06.403Z,52.9
2023-04-28T01:24:57.109Z,52.8
2023-04-28T01:30:48.297Z,52.8
2023-04-28T01:36:39.742Z,52.8
2023-04-28T01:42:31.541Z,52.7
2023-04-28T01:48:23.377Z,52.6
2023-04-28T01:54:15.062Z,52.6
2023-04-28T02:00:08.389Z,52.6
2023-04-28T02:06:00.770Z,52.5
2023-04-28T02:11:52.271Z,52.4
2023-04-28T02:17:28.647Z,52.4
2023-04-28T02:34:35.212Z,52.3
2023-04-28T02:40:25.993Z,52.3
2023-04-28T02:46:17.745Z,52.3
2023-04-28T02:51:53.850Z,52.2
2023-04-28T02:57:45.277Z,52.2
2023-04-28T03:03:38.391Z,52.1
2023-04-28T03:09:15.761Z,52.1
2023-04-28T03:14:51.640Z,52
2023-04-28T03:20:13.617Z,52
2023-04-28T03:37:10.956Z,51.9
2023-04-28T03:43:04.702Z,51.8
2023-04-28T03:48:56.570Z,51.8
2023-04-28T03:54:47.446Z,51.8
2023-04-28T04:00:38.766Z,51.7
2023-04-28T04:06:34.146Z,51.6
2023-04-28T04:12:10.238Z,51.6
2023-04-28T04:18:03.160Z,51.6
2023-04-28T04:23:54.861Z,51.5
2023-04-28T04:29:46.230Z,51.4
2023-04-28T04:35:38.301Z,51.4
2023-04-28T04:41:29.686Z,51.4
2023-04-28T04:47:38.230Z,51.3
2023-04-28T04:53:32.758Z,51.3
2023-04-28T04:59:24.245Z,51.2
2023-04-28T05:05:33.087Z,51.2
2023-04-28T05:11:24.495Z,51.1
2023-04-28T05:17:19.297Z,51.1
2023-04-28T05:23:11.036Z,51.1
2023-04-28T05:29:03.337Z,51
2023-04-28T05:34:55.525Z,50.9
2023-04-28T05:40:46.992Z,50.9
2023-04-28T05:46:50.916Z,50.9
2023-04-28T05:52:43.074Z,50.8
2023-04-28T05:58:42.513Z,50.8
2023-04-28T06:04:21.329Z,50.7
2023-04-28T06:09:59.302Z,50.6
2023-04-28T06:15:35.581Z,50.6
2023-04-28T06:21:11.957Z,50.5
2023-04-28T06:26:34.322Z,50.5
2023-04-28T06:32:10.260Z,50.4
2023-04-28T06:37:33.063Z,50.4
2023-04-28T06:42:38.662Z,50.3
2023-04-28T06:48:02.806Z,50.3
2023-04-28T06:53:28.799Z,50.3
2023-04-28T06:59:21.744Z,50.2
2023-04-28T07:05:16.463Z,50.2
2023-04-28T07:11:11.106Z,50.1
2023-04-28T07:17:02.885Z,50.1
2023-04-28T07:22:54.444Z,50.1
2023-04-28T07:28:48.222Z,50
2023-04-28T07:34:57.938Z,49.9
2023-04-28T07:40:49.266Z,49.9
2023-04-28T07:46:44.282Z,49.9
2023-04-28T07:52:21.035Z,49.8
2023-04-28T07:58:12.222Z,49.8
2023-04-28T08:04:06.560Z,49.8
2023-04-28T08:09:59.376Z,49.7
2023-04-28T08:15:35.242Z,49.6
2023-04-28T08:21:30.595Z,49.8
2023-04-28T08:27:23.547Z,50.4
2023-04-28T08:32:45.485Z,51
2023-04-28T08:38:22.730Z,51.7
2023-04-28T08:44:01.302Z,52.4
2023-04-28T08:49:23.170Z,53.1
2023-04-28T08:55:15.933Z,53.7
2023-04-28T09:00:37.190Z,54.4
2023-04-28T09:06:17.058Z,55.1
2023-04-28T09:11:40.142Z,55.9
2023-04-28T09:17:01.591Z,56.5
2023-04-28T09:23:11.375Z,57.2
2023-04-28T09:29:02.738Z,57.8
2023-04-28T09:34:24.534Z,58.3
2023-04-28T09:40:02.845Z,58.6
2023-04-28T09:45:40.301Z,58.9
2023-04-28T09:51:16.898Z,59.2
2023-04-28T09:57:07.880Z,59.4
2023-04-28T10:04:56.836Z,59.7
2023-04-28T10:10:49.633Z,60.1
2023-04-28T10:16:26.054Z,60.4
2023-04-28T10:22:17.167Z,60.6
2023-04-28T10:28:08.754Z,60.9
2023-04-28T10:34:13.211Z,61.3
2023-04-28T10:40:16.276Z,61.4
2023-04-28T10:46:12.478Z,61.8
2023-04-28T10:52:17.867Z,62
2023-04-28T10:58:21.438Z,62.3
2023-04-28T11:04:14.276Z,62.4
2023-04-28T11:10:06.486Z,62.7
2023-04-28T11:16:00.422Z,62.9
2023-04-28T11:21:36.335Z,63.1
2023-04-28T11:27:27.819Z,63.3
2023-04-28T11:33:19.343Z,63.4
2023-04-28T11:39:12.089Z,63.6
2023-04-28T11:45:10.099Z,63.8
2023-04-28T11:51:03.444Z,63.9
2023-04-28T11:56:55.253Z,64.1
2023-04-28T12:02:49.402Z,64.3
2023-04-28T12:08:45.448Z,64.3
2023-04-28T12:14:53.871Z,64.4
2023-04-28T12:20:45.243Z,64.5
2023-04-28T12:26:22.316Z,64.6
2023-04-28T12:32:13.821Z,64.6
2023-04-28T12:38:07.158Z,64.6
2023-04-28T12:43:59.301Z,64.8
2023-04-28T12:49:52.607Z,64.8
2023-04-28T12:55:44.282Z,64.8
2023-04-28T13:01:20.567Z,64.8
2023-04-28T13:07:14.818Z,64.8
2023-04-28T13:13:17.096Z,64.8
2023-04-28T13:19:09.267Z,64.8
2023-04-28T13:25:03.751Z,64.8
2023-04-28T13:30:24.471Z,64.8
2023-04-28T13:36:16.042Z,64.7
2023-04-28T13:42:08.968Z,64.7
2023-04-28T13:48:00.342Z,64.6
2023-04-28T13:53:51.258Z,64.6
2023-04-28T13:59:43.390Z,64.6
2023-04-28T14:05:46.011Z,64.5
2023-04-28T14:11:27.364Z,64.5
2023-04-28T14:17:30.453Z,64.4
2023-04-28T14:23:21.525Z,64.4
2023-04-28T14:29:12.741Z,64.3
2023-04-28T14:35:05.466Z,64.3
2023-04-28T14:40:42.191Z,64.2
2023-04-28T14:46:33.973Z,64.2
2023-04-28T14:52:26.041Z,64.1
2023-04-28T14:58:19.933Z,64.1
2023-04-28T15:04:12.883Z,64
2023-04-28T15:09:53.404Z,64
2023-04-28T15:15:45.134Z,63.9
2023-04-28T15:21:38.303Z,63.9
2023-04-28T15:27:30.346Z,63.8
2023-04-28T15:33:23.152Z,63.8
2023-04-28T15:39:18.974Z,63.7
2023-04-28T15:45:10.756Z,63.7
2023-04-28T15:51:03.210Z,63.6
2023-04-28T15:56:55.355Z,63.6
2023-04-28T16:02:47.923Z,63.5
2023-04-28T16:08:41.131Z,63.5
2023-04-28T16:14:33.385Z,63.4
2023-04-28T16:20:26.322Z,63.4
2023-04-28T16:26:04.301Z,63.3
2023-04-28T16:31:56.542Z,63.3
2023-04-28T16:37:49.498Z,63.2
2023-04-28T16:43:42.155Z,63.1
2023-04-28T16:49:34.260Z,63.1
2023-04-28T16:55:27.051Z,63.1
2023-04-28T17:01:19.762Z,63
2023-04-28T17:06:42.963Z,62.9
2023-04-28T17:12:34.773Z,62.9
2023-04-28T17:18:29.637Z,62.9
2023-04-28T17:24:22.233Z,62.8
2023-04-28T17:30:14.028Z,62.8
2023-04-28T17:36:09.110Z,62.7
2023-04-28T17:42:01.165Z,62.6
2023-04-28T17:47:53.234Z,62.6
2023-04-28T17:53:47.029Z,62.5
2023-04-28T17:59:39.000Z,62.5
2023-04-28T18:05:33.800Z,62.4
2023-04-28T18:11:27.408Z,62.4
2023-04-28T18:17:22.206Z,62.3
2023-04-28T18:23:16.761Z,62.3
2023-04-28T18:29:08.912Z,62.2
2023-04-28T18:35:04.205Z,62.2
2023-04-28T18:40:56.199Z,62.1
2023-04-28T18:46:49.990Z,62.1
2023-04-28T18:52:43.444Z,62
2023-04-28T18:58:35.417Z,61.9
2023-04-28T19:04:28.813Z,61.9
2023-04-28T19:10:10.110Z,61.9
2023-04-28T19:16:01.628Z,61.8
2023-04-28T19:21:53.776Z,61.8
2023-04-28T19:27:46.333Z,61.7
2023-04-28T19:33:38.665Z,61.6
2023-04-28T19:39:30.984Z,61.6
2023-04-28T19:45:23.293Z,61.6
2023-04-28T19:51:16.787Z,61.5
2023-04-28T19:57:09.332Z,61.4
2023-04-28T20:02:33.656Z,61.4
2023-04-28T20:08:29.195Z,61.3
2023-04-28T20:14:05.556Z,61.3
2023-04-28T20:19:57.526Z,61.3
2023-04-28T20:25:49.584Z,61.2
2023-04-28T20:31:42.299Z,61.1
2023-04-28T20:37:33.985Z,61.1
2023-04-28T20:43:25.584Z,61.1
2023-04-28T20:49:19.853Z,61
2023-04-28T20:55:12.563Z,60.9
2023-04-28T21:01:04.945Z,60.9
2023-04-28T21:06:58.799Z,60.8
2023-04-28T21:12:49.900Z,60.8
2023-04-28T21:18:41.402Z,60.7
2023-04-28T21:24:18.323Z,60.7
2023-04-28T21:30:09.324Z,60.6
2023-04-28T21:36:01.500Z,60.6
2023-04-28T21:41:52.768Z,60.5
2023-04-28T21:47:29.520Z,60.5
2023-04-28T21:52:50.053Z,60.4
2023-04-28T21:58:41.630Z,60.4
2023-04-28T22:04:20.096Z,60.3
2023-04-28T22:10:11.933Z,60.3
2023-04-28T22:16:19.643Z,60.3
2023-04-28T22:22:11.460Z,60.2
2023-04-28T22:28:02.931Z,60.1
2023-04-28T22:33:38.883Z,60.1
2023-04-28T22:39:15.020Z,60
2023-04-28T22:44:51.012Z,59.9
2023-04-28T22:50:42.632Z,59.9
2023-04-28T22:56:33.925Z,59.9
2023-04-28T23:02:12.892Z,59.8
2023-04-28T23:08:06.992Z,59.8
2023-04-28T23:13:42.718Z,59.8
2023-04-28T23:19:37.123Z,59.7
2023-04-28T23:25:28.575Z,59.6
2023-04-28T23:31:04.400Z,59.6
2023-04-28T23:36:41.075Z,59.5
2023-04-28T23:42:17.506Z,59.5
2023-04-28T23:47:53.839Z,59.4
2023-04-28T23:53:44.806Z,59.4
2023-04-28T23:59:35.943Z,59.3
